Kinrooi, Belgium
Current Conditions -  °F | °C
As of 11:03 AM on Wednesday 26 Nov 2014 (Local Time) from EBBL Reporting Station
Broken Clouds Broken Clouds  
Wind Chill:   Ceiling: 11000
Heat Index:   Visibility: 4mi
Dew Point:   Wind: 6mph
Humidity: 81%   Direction: 90°E
Pressure: 29.94"   Gusts: NA
Location:  51.15°N, 5.74°E
Report Text: EBBL 261003Z 09005KT 6000 SCT080 BKN110 06/03 Q1014 WHT WHT TEMPO BLU
Loading
Personal Weather Stations






























Interactive Weather Map New forecast layout! Learn more

10-Day Weather Forecast

Advertisements
Track Severe Weather on mobile